Veuillez saisir l'adresse e-mail associée à votre compte d'utilisateur. Un code de vérification vous sera adressé. Lorsque vous le recevrez, vous pourrez choisir un nouveau mot de passe

METAR TAF

[Source: ADDS]
METAR
LFCR 090900Z AUTO 31005KT CAVOK 03/01 Q1018 NOSIG =
LFCR 090500Z 0906/1006 VRB02KT CAVOK BECMG 0908/0910 30005KT TEMPO 0913/0918 29010KT SCT035 BECMG 0921/0923 VRB02KT LFBA 090900Z AUTO 30005KT 270V330 CAVOK 06/01 Q1021 NOSIG =
LFBA 090800Z 0909/0918 29007KT CAVOK LFSL 090900Z AUTO 34006KT 320V020 CAVOK 05/M01 Q1020 NOSIG =
LFSL 090800Z 0909/0918 32007KT CAVOK LFLW 090900Z AUTO VRB03KT CAVOK 02/00 Q1018 NOSIG =
LFLW 090800Z 0909/0918 VRB02KT CAVOK BECMG 0912/0914 31012KT
TAF
LFCR 090500Z 0906/1006 VRB02KT CAVOK BECMG 0908/0910 30005KT TEMPO 0913/0918 29010KT SCT035 BECMG 0921/0923 VRB02KT =
LFBA 090800Z 0909/0918 29007KT CAVOK =
LFSL 090800Z 0909/0918 32007KT CAVOK =
LFLW 090800Z 0909/0918 VRB02KT CAVOK BECMG 0912/0914 31012KT =
SR / SS: 06:16 / 17:52 UTC (LFCC 2021-03-09)